createdAt,value
2023-05-16T00:03:38.236Z,11.20
2023-05-16T00:07:36.050Z,11.00
2023-05-16T00:11:34.062Z,11.20
2023-05-16T00:15:33.037Z,10.90
2023-05-16T00:19:31.027Z,11.80
2023-05-16T00:23:29.072Z,10.80
2023-05-16T00:27:26.999Z,10.70
2023-05-16T00:31:25.069Z,10.90
2023-05-16T00:35:23.099Z,10.70
2023-05-16T00:39:21.024Z,10.80
2023-05-16T00:43:20.007Z,10.30
2023-05-16T00:47:18.059Z,11.00
2023-05-16T00:51:16.001Z,11.30
2023-05-16T00:55:14.030Z,11.10
2023-05-16T00:59:11.980Z,11.20
2023-05-16T01:03:11.118Z,11.10
2023-05-16T01:07:10.969Z,11.80
2023-05-16T01:11:15.023Z,11.20
2023-05-16T01:15:17.977Z,11.20
2023-05-16T01:19:46.008Z,11.40
2023-05-16T01:24:01.970Z,11.50
2023-05-16T01:27:59.942Z,11.20
2023-05-16T01:31:57.963Z,11.60
2023-05-16T01:36:12.947Z,11.80
2023-05-16T01:40:52.964Z,13.90
2023-05-16T01:45:04.924Z,11.80
2023-05-16T01:49:16.940Z,14.50
2023-05-16T01:53:38.003Z,11.70
2023-05-16T01:57:39.886Z,14.70
2023-05-16T02:01:38.099Z,11.50
2023-05-16T02:05:35.882Z,12.40
2023-05-16T02:09:35.891Z,11.20
2023-05-16T02:13:33.870Z,14.10
2023-05-16T02:17:31.972Z,14.30
2023-05-16T02:21:29.955Z,11.30
2023-05-16T02:25:29.889Z,10.90
2023-05-16T02:29:27.867Z,13.90
2023-05-16T02:33:25.902Z,13.90
2023-05-16T02:37:23.916Z,9.70
2023-05-16T02:41:21.866Z,13.60
2023-05-16T02:45:19.867Z,13.50
2023-05-16T02:49:17.863Z,13.30
2023-05-16T02:53:15.855Z,13.10
2023-05-16T02:57:13.931Z,13.40
2023-05-16T03:01:11.878Z,12.60
2023-05-16T03:05:09.861Z,13.20
2023-05-16T03:09:07.843Z,13.40
2023-05-16T03:13:07.861Z,9.90
2023-05-16T03:17:05.821Z,12.60
2023-05-16T03:21:03.843Z,13.70
2023-05-16T03:25:01.841Z,9.50
2023-05-16T03:28:59.856Z,9.60
2023-05-16T03:32:59.884Z,8.50
2023-05-16T03:36:57.824Z,6.90
2023-05-16T03:40:55.769Z,6.80
2023-05-16T03:44:53.777Z,6.80
2023-05-16T03:48:51.782Z,6.10
2023-05-16T03:52:49.853Z,6.10
2023-05-16T03:56:47.719Z,5.70
2023-05-16T04:00:45.856Z,5.30
2023-05-16T04:04:43.764Z,5.80
2023-05-16T04:08:41.771Z,5.40
2023-05-16T04:12:39.754Z,5.00
2023-05-16T04:16:37.792Z,5.40
2023-05-16T04:20:35.733Z,5.50
2023-05-16T04:24:35.781Z,5.50
2023-05-16T04:28:34.821Z,5.30
2023-05-16T04:32:32.754Z,5.60
2023-05-16T04:36:30.730Z,4.90
2023-05-16T04:40:28.758Z,4.80
2023-05-16T04:44:26.792Z,5.40
2023-05-16T04:48:24.839Z,5.40
2023-05-16T04:52:22.738Z,5.30
2023-05-16T04:56:20.747Z,5.00
2023-05-16T05:00:19.766Z,5.40
2023-05-16T05:04:17.796Z,5.70
2023-05-16T05:08:15.729Z,5.40
2023-05-16T05:12:13.760Z,5.10
2023-05-16T05:16:11.695Z,5.00
2023-05-16T05:20:13.712Z,5.40
2023-05-16T05:24:11.695Z,5.20
2023-05-16T05:28:09.722Z,5.60
2023-05-16T05:32:07.822Z,6.00
2023-05-16T05:36:05.714Z,5.70
2023-05-16T05:40:03.719Z,5.50
2023-05-16T05:44:01.714Z,6.10
2023-05-16T05:47:59.693Z,6.90
2023-05-16T05:51:58.740Z,6.30
2023-05-16T05:55:56.706Z,6.40
2023-05-16T05:59:41.392Z,5.60
2023-05-16T06:03:06.062Z,6.00
2023-05-16T06:06:31.340Z,5.70
2023-05-16T06:09:55.065Z,5.60
2023-05-16T06:13:18.915Z,5.60
2023-05-16T06:16:42.952Z,6.20
2023-05-16T06:20:07.575Z,5.40
2023-05-16T06:23:31.801Z,5.80
2023-05-16T06:26:55.815Z,5.60
2023-05-16T06:30:19.768Z,5.30
2023-05-16T06:33:43.550Z,5.60
2023-05-16T06:37:07.407Z,5.80
2023-05-16T06:40:31.231Z,5.20
2023-05-16T06:43:55.132Z,5.30
2023-05-16T06:47:18.982Z,5.10
2023-05-16T06:50:43.052Z,5.20
2023-05-16T06:54:07.267Z,5.70
2023-05-16T06:57:31.521Z,5.20
2023-05-16T07:00:55.785Z,5.50
2023-05-16T07:04:19.713Z,5.00
2023-05-16T07:07:43.640Z,5.20
2023-05-16T07:11:07.587Z,5.00
2023-05-16T07:14:31.506Z,5.10
2023-05-16T07:17:55.437Z,5.40
2023-05-16T07:21:19.491Z,4.70
2023-05-16T07:24:43.370Z,5.60
2023-05-16T07:28:07.349Z,5.20
2023-05-16T07:31:32.371Z,5.20
2023-05-16T07:38:20.397Z,4.90
2023-05-16T07:41:44.336Z,5.30
2023-05-16T07:45:09.031Z,5.90
2023-05-16T07:48:33.058Z,5.20
2023-05-16T07:51:57.396Z,5.20
2023-05-16T07:55:22.297Z,5.20
2023-05-16T07:58:46.353Z,5.60
2023-05-16T08:02:11.518Z,5.40
2023-05-16T08:05:35.883Z,5.60
2023-05-16T08:08:59.831Z,5.20
2023-05-16T08:12:25.372Z,5.00
2023-05-16T08:15:49.316Z,5.30
2023-05-16T08:19:13.346Z,4.80
2023-05-16T08:22:37.496Z,4.40
2023-05-16T08:26:01.627Z,4.70
2023-05-16T08:29:25.820Z,4.90
2023-05-16T08:32:49.735Z,4.70
2023-05-16T08:36:15.936Z,5.40
2023-05-16T08:39:40.474Z,4.50
2023-05-16T08:43:05.352Z,4.50
2023-05-16T08:46:30.254Z,5.60
2023-05-16T08:49:58.697Z,4.60
2023-05-16T08:53:28.166Z,5.20
2023-05-16T08:56:53.155Z,4.80
2023-05-16T09:00:19.834Z,4.60
2023-05-16T09:03:45.189Z,4.30
2023-05-16T09:07:09.075Z,4.70
2023-05-16T09:10:32.911Z,4.70
2023-05-16T09:13:56.734Z,5.00
2023-05-16T09:17:32.016Z,4.70
2023-05-16T09:21:02.987Z,4.90
2023-05-16T09:24:27.535Z,4.40
2023-05-16T09:27:59.137Z,5.10
2023-05-16T09:31:25.136Z,5.50
2023-05-16T09:34:51.725Z,4.80
2023-05-16T09:38:17.458Z,5.00
2023-05-16T09:41:41.480Z,5.30
2023-05-16T09:45:05.768Z,5.00
2023-05-16T09:48:29.646Z,5.10
2023-05-16T09:51:53.599Z,4.90
2023-05-16T09:55:17.525Z,5.30
2023-05-16T09:58:44.555Z,5.20
2023-05-16T10:02:08.927Z,5.10
2023-05-16T10:05:33.339Z,4.80
2023-05-16T10:08:57.579Z,5.70
2023-05-16T10:12:28.677Z,5.20
2023-05-16T10:15:57.428Z,5.50
2023-05-16T10:19:24.655Z,5.00
2023-05-16T10:22:50.927Z,5.20
2023-05-16T10:26:18.196Z,5.60
2023-05-16T10:29:54.316Z,6.00
2023-05-16T10:33:20.292Z,5.70
2023-05-16T10:36:46.996Z,5.20
2023-05-16T10:40:11.806Z,5.70
2023-05-16T10:43:35.675Z,4.80
2023-05-16T10:47:00.935Z,5.80
2023-05-16T10:50:36.315Z,4.90
2023-05-16T10:57:33.990Z,5.20
2023-05-16T11:01:24.321Z,5.20
2023-05-16T11:04:52.729Z,5.30
2023-05-16T11:08:16.632Z,5.30
2023-05-16T11:11:57.792Z,5.00
2023-05-16T11:15:32.514Z,5.20
2023-05-16T11:18:56.539Z,5.20
2023-05-16T11:22:21.143Z,4.70
2023-05-16T11:25:51.137Z,5.90
2023-05-16T11:29:16.287Z,5.10
2023-05-16T11:32:42.682Z,4.90
2023-05-16T11:36:15.741Z,5.20
2023-05-16T11:39:40.013Z,5.60
2023-05-16T11:43:07.037Z,6.20
2023-05-16T11:46:31.236Z,5.70
2023-05-16T11:49:59.345Z,5.60
2023-05-16T11:53:23.430Z,5.60
2023-05-16T11:56:47.852Z,5.50
2023-05-16T12:00:19.585Z,5.50
2023-05-16T12:03:43.693Z,5.30
2023-05-16T12:07:08.009Z,5.40
2023-05-16T12:10:34.651Z,5.30
2023-05-16T12:13:59.112Z,5.20
2023-05-16T12:17:23.282Z,5.60
2023-05-16T12:20:47.976Z,5.50
2023-05-16T12:24:13.563Z,5.40
2023-05-16T12:27:39.342Z,5.40
2023-05-16T12:31:04.576Z,5.00
2023-05-16T12:34:31.062Z,5.40
2023-05-16T12:37:56.229Z,5.50
2023-05-16T12:41:24.364Z,5.60
2023-05-16T12:44:48.307Z,5.10
2023-05-16T12:48:16.252Z,5.60
2023-05-16T12:51:40.417Z,5.50
2023-05-16T12:55:04.643Z,5.30
2023-05-16T12:58:28.753Z,5.10
2023-05-16T13:01:52.950Z,5.60
2023-05-16T13:05:17.637Z,5.60
2023-05-16T13:12:05.771Z,5.60
2023-05-16T13:15:29.850Z,5.70
2023-05-16T13:18:54.250Z,5.70
2023-05-16T13:22:18.186Z,6.20
2023-05-16T13:25:42.028Z,5.30
2023-05-16T13:29:05.956Z,5.50
2023-05-16T13:32:50.439Z,5.60
2023-05-16T13:40:49.544Z,6.10
2023-05-16T13:44:47.610Z,5.40
2023-05-16T13:48:45.380Z,5.50
2023-05-16T13:52:43.558Z,5.20
2023-05-16T13:56:41.310Z,5.30
2023-05-16T14:00:45.149Z,4.70
2023-05-16T14:04:44.393Z,5.90
2023-05-16T14:08:42.310Z,6.00
2023-05-16T14:12:40.435Z,5.40
2023-05-16T14:16:38.410Z,5.80
2023-05-16T14:20:36.612Z,5.40
2023-05-16T14:24:34.342Z,5.60
2023-05-16T14:28:32.360Z,5.90
2023-05-16T14:32:30.422Z,5.60
2023-05-16T14:36:29.732Z,5.60
2023-05-16T14:40:28.329Z,5.40
2023-05-16T14:44:27.278Z,5.90
2023-05-16T14:48:25.268Z,5.60
2023-05-16T14:52:23.330Z,5.50
2023-05-16T14:56:21.336Z,4.80
2023-05-16T15:00:19.282Z,5.70
2023-05-16T15:04:17.327Z,5.30
2023-05-16T15:08:15.239Z,5.50
2023-05-16T15:12:13.254Z,6.50
2023-05-16T15:16:11.477Z,5.60
2023-05-16T15:20:09.278Z,6.00
2023-05-16T15:24:07.343Z,5.60
2023-05-16T15:28:07.375Z,5.70
2023-05-16T15:32:05.295Z,5.50
2023-05-16T15:36:03.245Z,5.40
2023-05-16T15:40:01.366Z,5.50
2023-05-16T15:43:59.303Z,5.80
2023-05-16T15:47:57.271Z,5.30
2023-05-16T15:51:55.193Z,5.10
2023-05-16T15:55:54.237Z,5.40
2023-05-16T15:59:56.239Z,5.30
2023-05-16T16:04:03.368Z,5.30
2023-05-16T16:08:01.221Z,5.20
2023-05-16T16:12:03.268Z,5.20
2023-05-16T16:16:01.285Z,5.30
2023-05-16T16:19:59.223Z,5.40
2023-05-16T16:23:57.182Z,4.70
2023-05-16T16:27:55.209Z,5.20
2023-05-16T16:31:53.275Z,5.40
2023-05-16T16:35:51.188Z,6.30
2023-05-16T16:39:49.182Z,5.30
2023-05-16T16:43:47.177Z,5.30
2023-05-16T16:47:46.274Z,5.10
2023-05-16T16:51:44.131Z,6.10
2023-05-16T16:55:42.316Z,5.60
2023-05-16T16:59:40.231Z,5.80
2023-05-16T17:03:38.212Z,6.60
2023-05-16T17:07:36.210Z,6.10
2023-05-16T17:11:36.201Z,6.50
2023-05-16T17:15:34.238Z,6.50
2023-05-16T17:19:32.162Z,7.30
2023-05-16T17:23:30.200Z,6.60
2023-05-16T17:27:28.159Z,6.70
2023-05-16T17:31:26.110Z,7.00
2023-05-16T17:35:24.103Z,6.50
2023-05-16T17:39:22.188Z,6.80
2023-05-16T17:43:20.078Z,6.40
2023-05-16T17:47:18.109Z,6.80
2023-05-16T17:51:16.089Z,7.00
2023-05-16T17:55:14.118Z,6.80
2023-05-16T17:59:12.082Z,7.00
2023-05-16T18:03:10.176Z,6.30
2023-05-16T18:07:08.098Z,6.50
2023-05-16T18:11:06.124Z,6.70
2023-05-16T18:15:04.088Z,5.80
2023-05-16T18:19:02.190Z,6.40
2023-05-16T18:23:00.069Z,5.60
2023-05-16T18:26:58.145Z,5.70
2023-05-16T18:30:56.052Z,6.80
2023-05-16T18:34:54.053Z,5.70
2023-05-16T18:38:52.090Z,5.90
2023-05-16T18:42:50.058Z,6.70
2023-05-16T18:46:48.032Z,6.70
2023-05-16T18:50:46.090Z,6.90
2023-05-16T18:54:44.100Z,6.70
2023-05-16T18:58:42.144Z,6.50
2023-05-16T19:02:42.556Z,6.80
2023-05-16T19:06:41.045Z,6.80
2023-05-16T19:10:44.025Z,6.30
2023-05-16T19:14:42.026Z,6.20
2023-05-16T19:18:41.262Z,6.30
2023-05-16T19:23:11.050Z,7.70
2023-05-16T19:27:09.057Z,6.80
2023-05-16T19:31:07.290Z,7.10
2023-05-16T19:35:05.166Z,6.70
2023-05-16T19:39:03.014Z,7.20
2023-05-16T19:43:00.999Z,6.10
2023-05-16T19:47:00.596Z,6.10
2023-05-16T19:50:58.999Z,6.00
2023-05-16T19:54:56.983Z,6.30
2023-05-16T19:58:54.986Z,6.20
2023-05-16T20:02:53.244Z,6.30
2023-05-16T20:06:50.922Z,6.20
2023-05-16T20:10:49.036Z,6.30
2023-05-16T20:14:47.152Z,6.30
2023-05-16T20:18:45.062Z,6.60
2023-05-16T20:22:44.992Z,6.00
2023-05-16T20:26:42.953Z,6.10
2023-05-16T20:30:40.981Z,5.80
2023-05-16T20:34:41.532Z,5.90
2023-05-16T20:38:39.904Z,6.30
2023-05-16T20:42:37.965Z,6.10
2023-05-16T20:46:35.864Z,6.20
2023-05-16T20:50:33.946Z,6.30
2023-05-16T20:54:31.950Z,6.30
2023-05-16T20:58:29.917Z,5.90
2023-05-16T21:02:27.939Z,6.00
2023-05-16T21:06:25.909Z,6.30
2023-05-16T21:10:24.022Z,6.10
2023-05-16T21:14:21.931Z,5.20
2023-05-16T21:18:20.001Z,6.40
2023-05-16T21:22:17.958Z,5.70
2023-05-16T21:26:15.923Z,6.10
2023-05-16T21:30:13.901Z,6.40
2023-05-16T21:34:12.024Z,6.20
2023-05-16T21:38:09.951Z,6.00
2023-05-16T21:42:08.871Z,6.40
2023-05-16T21:46:06.922Z,6.60
2023-05-16T21:50:04.851Z,5.80
2023-05-16T21:54:02.870Z,5.90
2023-05-16T21:58:00.860Z,5.90
2023-05-16T22:01:58.955Z,6.80
2023-05-16T22:05:56.838Z,6.60
2023-05-16T22:09:57.009Z,7.10
2023-05-16T22:13:55.190Z,6.90
2023-05-16T22:17:54.924Z,7.40
2023-05-16T22:21:52.821Z,7.00
2023-05-16T22:25:50.866Z,7.10
2023-05-16T22:29:48.808Z,8.10
2023-05-16T22:33:46.934Z,8.20
2023-05-16T22:37:44.811Z,9.20
2023-05-16T22:41:42.856Z,9.10
2023-05-16T22:45:40.805Z,9.60
2023-05-16T22:49:38.809Z,9.90
2023-05-16T22:53:36.827Z,10.40
2023-05-16T22:57:34.812Z,11.20
2023-05-16T23:01:25.917Z,11.60
2023-05-16T23:05:23.809Z,10.70
2023-05-16T23:09:21.780Z,10.80
2023-05-16T23:13:19.809Z,11.10
2023-05-16T23:17:17.773Z,11.10
2023-05-16T23:21:15.796Z,11.40
2023-05-16T23:25:14.007Z,11.90
2023-05-16T23:29:11.762Z,10.90
2023-05-16T23:33:09.864Z,11.50
2023-05-16T23:37:07.784Z,12.10
2023-05-16T23:41:05.750Z,11.40
2023-05-16T23:45:03.815Z,11.40
2023-05-16T23:49:03.757Z,11.00
2023-05-16T23:53:01.840Z,11.30
2023-05-16T23:56:59.774Z,11.10
